sensor_id;sensor_type;location;lat;lon;timestamp;temperature;humidity
2565;DHT22;1292;48.020;7.822;2023-05-07T05:47:45;14.70;99.90
2565;DHT22;1292;48.020;7.822;2023-05-07T05:50:12;14.90;99.90
2565;DHT22;1292;48.020;7.822;2023-05-07T05:52:39;15.00;99.90
2565;DHT22;1292;48.020;7.822;2023-05-07T05:55:07;15.10;99.90
2565;DHT22;1292;48.020;7.822;2023-05-07T05:57:34;15.20;99.90
2565;DHT22;1292;48.020;7.822;2023-05-07T06:00:01;15.30;99.90
2565;DHT22;1292;48.020;7.822;2023-05-07T06:02:28;15.40;99.90
2565;DHT22;1292;48.020;7.822;2023-05-07T06:04:56;15.50;99.90
2565;DHT22;1292;48.020;7.822;2023-05-07T06:07:22;15.70;99.90
2565;DHT22;1292;48.020;7.822;2023-05-07T06:09:49;15.70;99.90
2565;DHT22;1292;48.020;7.822;2023-05-07T06:12:16;15.50;99.90
2565;DHT22;1292;48.020;7.822;2023-05-07T06:14:43;15.50;99.90
2565;DHT22;1292;48.020;7.822;2023-05-07T06:17:10;15.50;99.90
2565;DHT22;1292;48.020;7.822;2023-05-07T06:19:37;15.60;99.90
2565;DHT22;1292;48.020;7.822;2023-05-07T06:22:05;15.90;99.90
2565;DHT22;1292;48.020;7.822;2023-05-07T06:24:31;16.00;99.90
2565;DHT22;1292;48.020;7.822;2023-05-07T06:26:58;16.00;99.90
2565;DHT22;1292;48.020;7.822;2023-05-07T06:29:25;16.00;99.90
2565;DHT22;1292;48.020;7.822;2023-05-07T06:31:52;16.00;99.90
2565;DHT22;1292;48.020;7.822;2023-05-07T06:34:19;16.00;99.90
2565;DHT22;1292;48.020;7.822;2023-05-07T06:36:46;16.10;99.90
2565;DHT22;1292;48.020;7.822;2023-05-07T06:39:14;16.10;99.90
2565;DHT22;1292;48.020;7.822;2023-05-07T06:41:41;16.20;99.90
2565;DHT22;1292;48.020;7.822;2023-05-07T06:44:08;16.30;99.90
2565;DHT22;1292;48.020;7.822;2023-05-07T06:46:34;16.30;99.90
2565;DHT22;1292;48.020;7.822;2023-05-07T06:49:01;16.40;99.90
2565;DHT22;1292;48.020;7.822;2023-05-07T06:51:28;16.50;99.90
2565;DHT22;1292;48.020;7.822;2023-05-07T06:53:55;16.50;99.90
2565;DHT22;1292;48.020;7.822;2023-05-07T06:56:23;16.60;99.90
2565;DHT22;1292;48.020;7.822;2023-05-07T06:58:50;16.60;99.90
2565;DHT22;1292;48.020;7.822;2023-05-07T07:01:17;16.60;99.90
2565;DHT22;1292;48.020;7.822;2023-05-07T07:03:44;16.60;99.90
2565;DHT22;1292;48.020;7.822;2023-05-07T07:06:11;16.70;99.90
2565;DHT22;1292;48.020;7.822;2023-05-07T07:08:37;16.80;99.90
2565;DHT22;1292;48.020;7.822;2023-05-07T07:11:04;16.70;99.90
2565;DHT22;1292;48.020;7.822;2023-05-07T07:13:33;16.70;99.90
2565;DHT22;1292;48.020;7.822;2023-05-07T07:16:00;16.90;99.90
2565;DHT22;1292;48.020;7.822;2023-05-07T07:18:27;17.00;99.90
2565;DHT22;1292;48.020;7.822;2023-05-07T07:20:54;17.10;99.90
2565;DHT22;1292;48.020;7.822;2023-05-07T07:23:20;17.20;99.90
2565;DHT22;1292;48.020;7.822;2023-05-07T07:25:47;17.30;99.90
2565;DHT22;1292;48.020;7.822;2023-05-07T07:28:14;17.40;99.90
2565;DHT22;1292;48.020;7.822;2023-05-07T07:30:42;17.50;99.90
2565;DHT22;1292;48.020;7.822;2023-05-07T07:33:09;17.50;99.90
2565;DHT22;1292;48.020;7.822;2023-05-07T07:35:36;17.70;99.90
2565;DHT22;1292;48.020;7.822;2023-05-07T07:38:03;17.80;99.90
2565;DHT22;1292;48.020;7.822;2023-05-07T07:40:30;17.90;99.90
2565;DHT22;1292;48.020;7.822;2023-05-07T07:42:57;18.00;99.90
2565;DHT22;1292;48.020;7.822;2023-05-07T07:45:24;18.00;99.90
2565;DHT22;1292;48.020;7.822;2023-05-07T07:47:52;18.10;99.90
2565;DHT22;1292;48.020;7.822;2023-05-07T07:50:19;18.20;99.90
2565;DHT22;1292;48.020;7.822;2023-05-07T07:52:46;18.30;99.90
2565;DHT22;1292;48.020;7.822;2023-05-07T07:55:13;18.40;99.90
2565;DHT22;1292;48.020;7.822;2023-05-07T07:57:43;18.40;99.90
2565;DHT22;1292;48.020;7.822;2023-05-07T08:00:11;18.40;99.90
2565;DHT22;1292;48.020;7.822;2023-05-07T08:02:38;18.50;99.90
2565;DHT22;1292;48.020;7.822;2023-05-07T08:05:06;18.60;99.90
2565;DHT22;1292;48.020;7.822;2023-05-07T08:07:33;18.70;99.90
2565;DHT22;1292;48.020;7.822;2023-05-07T08:10:00;18.70;99.90
2565;DHT22;1292;48.020;7.822;2023-05-07T08:12:27;18.80;99.90
2565;DHT22;1292;48.020;7.822;2023-05-07T08:14:54;18.90;99.90
2565;DHT22;1292;48.020;7.822;2023-05-07T08:17:21;18.90;99.90
2565;DHT22;1292;48.020;7.822;2023-05-07T08:19:48;19.00;99.90
2565;DHT22;1292;48.020;7.822;2023-05-07T08:22:16;19.20;99.90
2565;DHT22;1292;48.020;7.822;2023-05-07T08:24:44;19.30;99.90
2565;DHT22;1292;48.020;7.822;2023-05-07T08:27:11;19.40;99.90
2565;DHT22;1292;48.020;7.822;2023-05-07T08:29:38;19.50;99.90
2565;DHT22;1292;48.020;7.822;2023-05-07T08:32:05;19.60;99.90
2565;DHT22;1292;48.020;7.822;2023-05-07T08:34:31;19.60;99.90
2565;DHT22;1292;48.020;7.822;2023-05-07T08:36:58;19.70;99.90
2565;DHT22;1292;48.020;7.822;2023-05-07T08:39:26;19.60;99.90
2565;DHT22;1292;48.020;7.822;2023-05-07T08:41:55;19.50;99.90
2565;DHT22;1292;48.020;7.822;2023-05-07T08:44:26;19.50;99.90
2565;DHT22;1292;48.020;7.822;2023-05-07T08:46:53;19.40;99.90
2565;DHT22;1292;48.020;7.822;2023-05-07T08:49:22;19.50;99.90
2565;DHT22;1292;48.020;7.822;2023-05-07T08:51:49;19.80;99.90
2565;DHT22;1292;48.020;7.822;2023-05-07T08:54:16;20.00;99.90
2565;DHT22;1292;48.020;7.822;2023-05-07T08:56:45;20.10;99.90
2565;DHT22;1292;48.020;7.822;2023-05-07T08:59:12;20.30;99.90
2565;DHT22;1292;48.020;7.822;2023-05-07T09:01:39;20.80;99.90
2565;DHT22;1292;48.020;7.822;2023-05-07T09:04:06;21.20;99.90
2565;DHT22;1292;48.020;7.822;2023-05-07T09:06:33;21.80;99.90
2565;DHT22;1292;48.020;7.822;2023-05-07T09:09:00;22.20;99.90
2565;DHT22;1292;48.020;7.822;2023-05-07T09:11:30;22.60;99.90
2565;DHT22;1292;48.020;7.822;2023-05-07T09:13:59;22.60;99.90
2565;DHT22;1292;48.020;7.822;2023-05-07T09:16:28;22.60;99.90
2565;DHT22;1292;48.020;7.822;2023-05-07T09:18:58;22.40;99.90
2565;DHT22;1292;48.020;7.822;2023-05-07T09:21:25;22.60;99.90
2565;DHT22;1292;48.020;7.822;2023-05-07T09:23:54;22.50;99.90
2565;DHT22;1292;48.020;7.822;2023-05-07T09:26:21;22.30;99.90
2565;DHT22;1292;48.020;7.822;2023-05-07T09:28:48;22.00;99.90
2565;DHT22;1292;48.020;7.822;2023-05-07T09:31:16;21.90;99.90
2565;DHT22;1292;48.020;7.822;2023-05-07T09:33:43;22.00;99.90
2565;DHT22;1292;48.020;7.822;2023-05-07T09:36:10;22.10;99.90
2565;DHT22;1292;48.020;7.822;2023-05-07T09:38:38;22.40;99.90
2565;DHT22;1292;48.020;7.822;2023-05-07T09:41:06;22.50;99.90
2565;DHT22;1292;48.020;7.822;2023-05-07T09:43:33;22.50;99.90
2565;DHT22;1292;48.020;7.822;2023-05-07T09:46:03;22.50;99.90
2565;DHT22;1292;48.020;7.822;2023-05-07T09:48:39;22.40;99.90
2565;DHT22;1292;48.020;7.822;2023-05-07T09:51:15;22.30;99.90
2565;DHT22;1292;48.020;7.822;2023-05-07T09:53:43;22.10;99.90
2565;DHT22;1292;48.020;7.822;2023-05-07T09:56:13;22.00;99.90
2565;DHT22;1292;48.020;7.822;2023-05-07T09:58:41;21.90;99.90
2565;DHT22;1292;48.020;7.822;2023-05-07T10:01:11;21.90;99.90
2565;DHT22;1292;48.020;7.822;2023-05-07T10:03:43;21.90;99.90
2565;DHT22;1292;48.020;7.822;2023-05-07T10:06:12;21.80;99.90
2565;DHT22;1292;48.020;7.822;2023-05-07T10:08:40;21.70;99.90
2565;DHT22;1292;48.020;7.822;2023-05-07T10:11:07;21.60;99.90
2565;DHT22;1292;48.020;7.822;2023-05-07T10:13:34;21.40;99.90
2565;DHT22;1292;48.020;7.822;2023-05-07T10:16:03;21.10;99.90
2565;DHT22;1292;48.020;7.822;2023-05-07T10:18:30;20.90;99.90
2565;DHT22;1292;48.020;7.822;2023-05-07T10:21:04;20.40;99.90
2565;DHT22;1292;48.020;7.822;2023-05-07T10:23:34;20.10;99.90
2565;DHT22;1292;48.020;7.822;2023-05-07T10:26:03;20.00;99.90
2565;DHT22;1292;48.020;7.822;2023-05-07T10:28:34;19.90;99.90
2565;DHT22;1292;48.020;7.822;2023-05-07T10:31:15;19.90;99.90
2565;DHT22;1292;48.020;7.822;2023-05-07T10:33:46;19.80;99.90
2565;DHT22;1292;48.020;7.822;2023-05-07T10:36:17;19.60;99.90
2565;DHT22;1292;48.020;7.822;2023-05-07T10:38:45;19.60;99.90
2565;DHT22;1292;48.020;7.822;2023-05-07T10:41:12;19.50;99.90
2565;DHT22;1292;48.020;7.822;2023-05-07T10:43:41;19.40;99.90
2565;DHT22;1292;48.020;7.822;2023-05-07T10:46:15;19.30;99.90
2565;DHT22;1292;48.020;7.822;2023-05-07T10:49:07;19.10;99.90
2565;DHT22;1292;48.020;7.822;2023-05-07T10:51:35;19.00;99.90
2565;DHT22;1292;48.020;7.822;2023-05-07T10:54:22;18.80;99.90
2565;DHT22;1292;48.020;7.822;2023-05-07T10:56:49;18.80;99.90
2565;DHT22;1292;48.020;7.822;2023-05-07T10:59:35;18.80;99.90
2565;DHT22;1292;48.020;7.822;2023-05-07T11:02:08;18.80;99.90
2565;DHT22;1292;48.020;7.822;2023-05-07T11:04:36;18.70;99.90
2565;DHT22;1292;48.020;7.822;2023-05-07T11:07:30;18.80;99.90
2565;DHT22;1292;48.020;7.822;2023-05-07T11:10:02;18.90;99.90
2565;DHT22;1292;48.020;7.822;2023-05-07T11:12:50;19.00;99.90
2565;DHT22;1292;48.020;7.822;2023-05-07T11:15:35;18.90;99.90
2565;DHT22;1292;48.020;7.822;2023-05-07T11:18:03;19.00;99.90
2565;DHT22;1292;48.020;7.822;2023-05-07T11:21:00;19.20;99.90
2565;DHT22;1292;48.020;7.822;2023-05-07T11:23:56;19.30;99.90
2565;DHT22;1292;48.020;7.822;2023-05-07T11:26:24;19.50;99.90
2565;DHT22;1292;48.020;7.822;2023-05-07T11:28:52;19.60;99.90
2565;DHT22;1292;48.020;7.822;2023-05-07T11:31:24;19.80;99.90
2565;DHT22;1292;48.020;7.822;2023-05-07T11:33:52;19.90;99.90
2565;DHT22;1292;48.020;7.822;2023-05-07T11:36:19;19.90;99.90
2565;DHT22;1292;48.020;7.822;2023-05-07T11:38:47;20.10;99.90
2565;DHT22;1292;48.020;7.822;2023-05-07T11:41:16;20.10;99.90
2565;DHT22;1292;48.020;7.822;2023-05-07T11:43:55;20.10;99.90
2565;DHT22;1292;48.020;7.822;2023-05-07T11:46:22;20.10;99.90
2565;DHT22;1292;48.020;7.822;2023-05-07T11:48:49;20.10;99.90
2565;DHT22;1292;48.020;7.822;2023-05-07T11:51:19;20.00;99.90
2565;DHT22;1292;48.020;7.822;2023-05-07T11:53:46;20.10;99.90
2565;DHT22;1292;48.020;7.822;2023-05-07T11:56:15;20.20;99.90
2565;DHT22;1292;48.020;7.822;2023-05-07T11:58:43;20.20;99.90
2565;DHT22;1292;48.020;7.822;2023-05-07T12:01:12;20.40;99.90
2565;DHT22;1292;48.020;7.822;2023-05-07T12:03:41;20.40;99.90
2565;DHT22;1292;48.020;7.822;2023-05-07T12:06:09;20.40;99.90
2565;DHT22;1292;48.020;7.822;2023-05-07T12:08:38;20.50;99.90
2565;DHT22;1292;48.020;7.822;2023-05-07T12:11:08;20.50;99.90
2565;DHT22;1292;48.020;7.822;2023-05-07T12:13:38;20.40;99.90
2565;DHT22;1292;48.020;7.822;2023-05-07T12:16:06;20.40;99.90
2565;DHT22;1292;48.020;7.822;2023-05-07T12:18:35;20.40;99.90
2565;DHT22;1292;48.020;7.822;2023-05-07T12:21:02;20.50;99.90
2565;DHT22;1292;48.020;7.822;2023-05-07T12:23:30;20.60;99.90
2565;DHT22;1292;48.020;7.822;2023-05-07T12:25:57;20.60;99.90
2565;DHT22;1292;48.020;7.822;2023-05-07T12:28:24;20.30;99.90
2565;DHT22;1292;48.020;7.822;2023-05-07T12:30:52;20.30;99.90
2565;DHT22;1292;48.020;7.822;2023-05-07T12:33:26;20.40;99.90
2565;DHT22;1292;48.020;7.822;2023-05-07T12:35:55;20.40;99.90
2565;DHT22;1292;48.020;7.822;2023-05-07T12:38:22;20.30;99.90
2565;DHT22;1292;48.020;7.822;2023-05-07T12:40:50;20.40;99.90
2565;DHT22;1292;48.020;7.822;2023-05-07T12:43:20;20.40;99.90
2565;DHT22;1292;48.020;7.822;2023-05-07T12:45:49;20.40;99.90
2565;DHT22;1292;48.020;7.822;2023-05-07T12:48:17;20.30;99.90
2565;DHT22;1292;48.020;7.822;2023-05-07T12:50:48;20.40;99.90
2565;DHT22;1292;48.020;7.822;2023-05-07T12:53:15;20.60;99.90
2565;DHT22;1292;48.020;7.822;2023-05-07T12:55:43;20.50;99.90
2565;DHT22;1292;48.020;7.822;2023-05-07T12:58:17;20.60;99.90
2565;DHT22;1292;48.020;7.822;2023-05-07T13:00:47;20.60;99.90
2565;DHT22;1292;48.020;7.822;2023-05-07T13:03:23;20.50;99.90
2565;DHT22;1292;48.020;7.822;2023-05-07T13:05:50;20.50;99.90
2565;DHT22;1292;48.020;7.822;2023-05-07T13:08:25;20.60;99.90
2565;DHT22;1292;48.020;7.822;2023-05-07T13:10:52;20.80;99.90
2565;DHT22;1292;48.020;7.822;2023-05-07T13:13:19;20.80;99.90
2565;DHT22;1292;48.020;7.822;2023-05-07T13:15:46;20.80;99.90
2565;DHT22;1292;48.020;7.822;2023-05-07T13:18:12;20.70;99.90
2565;DHT22;1292;48.020;7.822;2023-05-07T13:20:41;20.80;99.90
2565;DHT22;1292;48.020;7.822;2023-05-07T13:23:07;20.80;99.90
2565;DHT22;1292;48.020;7.822;2023-05-07T13:25:34;20.60;99.90
2565;DHT22;1292;48.020;7.822;2023-05-07T13:28:01;20.40;99.90
2565;DHT22;1292;48.020;7.822;2023-05-07T13:30:29;20.30;99.90
2565;DHT22;1292;48.020;7.822;2023-05-07T13:32:56;20.10;99.90
2565;DHT22;1292;48.020;7.822;2023-05-07T13:35:23;20.20;99.90
2565;DHT22;1292;48.020;7.822;2023-05-07T13:37:51;20.40;99.90
2565;DHT22;1292;48.020;7.822;2023-05-07T13:40:20;20.40;99.90
2565;DHT22;1292;48.020;7.822;2023-05-07T13:42:47;20.30;99.90
2565;DHT22;1292;48.020;7.822;2023-05-07T13:45:14;20.10;99.90
2565;DHT22;1292;48.020;7.822;2023-05-07T13:47:41;20.20;99.90
2565;DHT22;1292;48.020;7.822;2023-05-07T13:50:09;20.40;99.90
2565;DHT22;1292;48.020;7.822;2023-05-07T13:52:37;20.50;99.90
2565;DHT22;1292;48.020;7.822;2023-05-07T13:55:10;20.60;99.90
2565;DHT22;1292;48.020;7.822;2023-05-07T13:57:38;20.70;99.90
2565;DHT22;1292;48.020;7.822;2023-05-07T14:00:06;20.80;99.90
2565;DHT22;1292;48.020;7.822;2023-05-07T14:02:33;20.70;99.90
2565;DHT22;1292;48.020;7.822;2023-05-07T14:05:00;20.50;99.90
2565;DHT22;1292;48.020;7.822;2023-05-07T14:07:27;20.60;99.90
2565;DHT22;1292;48.020;7.822;2023-05-07T14:09:54;20.80;99.90
2565;DHT22;1292;48.020;7.822;2023-05-07T14:12:22;20.90;99.90
2565;DHT22;1292;48.020;7.822;2023-05-07T14:14:49;20.90;99.90
2565;DHT22;1292;48.020;7.822;2023-05-07T14:17:16;21.00;99.90
2565;DHT22;1292;48.020;7.822;2023-05-07T14:19:43;21.10;99.90
2565;DHT22;1292;48.020;7.822;2023-05-07T14:22:10;21.00;99.90
2565;DHT22;1292;48.020;7.822;2023-05-07T14:24:37;21.10;99.90
2565;DHT22;1292;48.020;7.822;2023-05-07T14:27:05;21.20;99.90
2565;DHT22;1292;48.020;7.822;2023-05-07T14:29:33;21.20;99.90
2565;DHT22;1292;48.020;7.822;2023-05-07T14:32:01;21.20;99.90
2565;DHT22;1292;48.020;7.822;2023-05-07T14:34:28;21.40;99.90
2565;DHT22;1292;48.020;7.822;2023-05-07T14:36:55;21.60;99.90
2565;DHT22;1292;48.020;7.822;2023-05-07T14:39:22;21.80;99.90
2565;DHT22;1292;48.020;7.822;2023-05-07T14:41:49;21.80;99.90
2565;DHT22;1292;48.020;7.822;2023-05-07T14:44:16;21.80;99.90
2565;DHT22;1292;48.020;7.822;2023-05-07T14:46:44;22.10;99.90
2565;DHT22;1292;48.020;7.822;2023-05-07T14:49:11;21.90;99.90
2565;DHT22;1292;48.020;7.822;2023-05-07T14:51:42;21.90;99.90
2565;DHT22;1292;48.020;7.822;2023-05-07T14:54:10;21.90;99.90
2565;DHT22;1292;48.020;7.822;2023-05-07T14:56:37;22.00;99.90
2565;DHT22;1292;48.020;7.822;2023-05-07T14:59:04;22.10;99.90
2565;DHT22;1292;48.020;7.822;2023-05-07T15:01:30;21.90;99.90
2565;DHT22;1292;48.020;7.822;2023-05-07T15:03:59;21.80;99.90
2565;DHT22;1292;48.020;7.822;2023-05-07T15:06:26;21.90;99.90
2565;DHT22;1292;48.020;7.822;2023-05-07T15:08:53;22.00;99.90
2565;DHT22;1292;48.020;7.822;2023-05-07T15:11:20;22.20;99.90
2565;DHT22;1292;48.020;7.822;2023-05-07T15:13:46;22.10;99.90
2565;DHT22;1292;48.020;7.822;2023-05-07T15:16:13;22.10;99.90
2565;DHT22;1292;48.020;7.822;2023-05-07T15:18:40;22.00;99.90
2565;DHT22;1292;48.020;7.822;2023-05-07T15:21:08;21.90;99.90
2565;DHT22;1292;48.020;7.822;2023-05-07T15:23:35;21.70;99.90
2565;DHT22;1292;48.020;7.822;2023-05-07T15:26:03;21.60;99.90
2565;DHT22;1292;48.020;7.822;2023-05-07T15:28:30;21.60;99.90
2565;DHT22;1292;48.020;7.822;2023-05-07T15:30:58;21.60;99.90
2565;DHT22;1292;48.020;7.822;2023-05-07T15:33:25;21.60;99.90
2565;DHT22;1292;48.020;7.822;2023-05-07T15:35:52;21.60;99.90
2565;DHT22;1292;48.020;7.822;2023-05-07T15:38:20;21.60;99.90
2565;DHT22;1292;48.020;7.822;2023-05-07T15:40:47;21.60;99.90
2565;DHT22;1292;48.020;7.822;2023-05-07T15:43:13;21.60;99.90
2565;DHT22;1292;48.020;7.822;2023-05-07T15:45:41;21.60;99.90
2565;DHT22;1292;48.020;7.822;2023-05-07T15:48:09;21.60;99.90
2565;DHT22;1292;48.020;7.822;2023-05-07T15:50:36;21.60;99.90
2565;DHT22;1292;48.020;7.822;2023-05-07T15:53:04;21.60;99.90
2565;DHT22;1292;48.020;7.822;2023-05-07T15:55:33;21.70;99.90
2565;DHT22;1292;48.020;7.822;2023-05-07T15:58:00;21.70;99.90
2565;DHT22;1292;48.020;7.822;2023-05-07T16:00:28;21.60;99.90
2565;DHT22;1292;48.020;7.822;2023-05-07T16:02:55;21.60;99.90
2565;DHT22;1292;48.020;7.822;2023-05-07T16:05:22;21.50;99.90
2565;DHT22;1292;48.020;7.822;2023-05-07T16:07:49;21.50;99.90
2565;DHT22;1292;48.020;7.822;2023-05-07T16:10:16;21.60;99.90
2565;DHT22;1292;48.020;7.822;2023-05-07T16:12:45;21.50;99.90
2565;DHT22;1292;48.020;7.822;2023-05-07T16:15:12;21.50;99.90
2565;DHT22;1292;48.020;7.822;2023-05-07T16:17:38;21.40;99.90
2565;DHT22;1292;48.020;7.822;2023-05-07T16:20:06;21.40;99.90
2565;DHT22;1292;48.020;7.822;2023-05-07T16:22:34;21.40;99.90
2565;DHT22;1292;48.020;7.822;2023-05-07T16:25:01;21.30;99.90
2565;DHT22;1292;48.020;7.822;2023-05-07T16:27:29;21.30;99.90
2565;DHT22;1292;48.020;7.822;2023-05-07T16:29:57;21.20;99.90
2565;DHT22;1292;48.020;7.822;2023-05-07T16:32:24;21.20;99.90
2565;DHT22;1292;48.020;7.822;2023-05-07T16:34:52;21.20;99.90
2565;DHT22;1292;48.020;7.822;2023-05-07T16:37:19;21.20;99.90
2565;DHT22;1292;48.020;7.822;2023-05-07T16:39:47;21.10;99.90
2565;DHT22;1292;48.020;7.822;2023-05-07T16:42:13;21.00;99.90
2565;DHT22;1292;48.020;7.822;2023-05-07T16:44:40;20.90;99.90
2565;DHT22;1292;48.020;7.822;2023-05-07T16:47:08;20.90;99.90
2565;DHT22;1292;48.020;7.822;2023-05-07T16:49:35;20.90;99.90
2565;DHT22;1292;48.020;7.822;2023-05-07T16:52:02;20.90;99.90
2565;DHT22;1292;48.020;7.822;2023-05-07T16:54:29;20.90;99.90
2565;DHT22;1292;48.020;7.822;2023-05-07T16:56:56;20.90;99.90
2565;DHT22;1292;48.020;7.822;2023-05-07T16:59:24;20.90;99.90
2565;DHT22;1292;48.020;7.822;2023-05-07T17:01:51;20.80;99.90
2565;DHT22;1292;48.020;7.822;2023-05-07T17:04:19;20.70;99.90
2565;DHT22;1292;48.020;7.822;2023-05-07T17:06:46;20.70;99.90
2565;DHT22;1292;48.020;7.822;2023-05-07T17:09:13;20.70;99.90
2565;DHT22;1292;48.020;7.822;2023-05-07T17:11:40;20.70;99.90
2565;DHT22;1292;48.020;7.822;2023-05-07T17:14:06;20.80;99.90
2565;DHT22;1292;48.020;7.822;2023-05-07T17:16:33;20.80;99.90
2565;DHT22;1292;48.020;7.822;2023-05-07T17:19:00;20.70;99.90
2565;DHT22;1292;48.020;7.822;2023-05-07T17:21:28;20.60;99.90
2565;DHT22;1292;48.020;7.822;2023-05-07T17:23:55;20.60;99.90
2565;DHT22;1292;48.020;7.822;2023-05-07T17:26:22;20.50;99.90
2565;DHT22;1292;48.020;7.822;2023-05-07T17:28:49;20.50;99.90
2565;DHT22;1292;48.020;7.822;2023-05-07T17:31:15;20.50;99.90
2565;DHT22;1292;48.020;7.822;2023-05-07T17:33:42;20.50;99.90
2565;DHT22;1292;48.020;7.822;2023-05-07T17:36:09;20.50;99.90
2565;DHT22;1292;48.020;7.822;2023-05-07T17:38:37;20.50;99.90
2565;DHT22;1292;48.020;7.822;2023-05-07T17:41:04;20.50;99.90
2565;DHT22;1292;48.020;7.822;2023-05-07T17:43:31;20.50;99.90
2565;DHT22;1292;48.020;7.822;2023-05-07T17:45:58;20.50;99.90
2565;DHT22;1292;48.020;7.822;2023-05-07T17:48:25;20.50;99.90
2565;DHT22;1292;48.020;7.822;2023-05-07T17:50:52;20.40;99.90
2565;DHT22;1292;48.020;7.822;2023-05-07T17:53:18;20.30;99.90
2565;DHT22;1292;48.020;7.822;2023-05-07T17:55:50;20.20;99.90
2565;DHT22;1292;48.020;7.822;2023-05-07T17:58:18;20.30;99.90
2565;DHT22;1292;48.020;7.822;2023-05-07T18:00:46;20.30;99.90
2565;DHT22;1292;48.020;7.822;2023-05-07T18:03:13;20.20;99.90
2565;DHT22;1292;48.020;7.822;2023-05-07T18:05:39;20.30;99.90
2565;DHT22;1292;48.020;7.822;2023-05-07T18:08:06;20.20;99.90
2565;DHT22;1292;48.020;7.822;2023-05-07T18:10:33;20.30;99.90
2565;DHT22;1292;48.020;7.822;2023-05-07T18:13:01;20.30;99.90
2565;DHT22;1292;48.020;7.822;2023-05-07T18:15:28;20.30;99.90
2565;DHT22;1292;48.020;7.822;2023-05-07T18:17:55;20.20;99.90
2565;DHT22;1292;48.020;7.822;2023-05-07T18:20:22;20.20;99.90
2565;DHT22;1292;48.020;7.822;2023-05-07T18:22:49;20.10;99.90
2565;DHT22;1292;48.020;7.822;2023-05-07T18:25:16;20.20;99.90
2565;DHT22;1292;48.020;7.822;2023-05-07T18:27:42;20.10;99.90
2565;DHT22;1292;48.020;7.822;2023-05-07T18:30:11;20.10;99.90
2565;DHT22;1292;48.020;7.822;2023-05-07T18:32:38;20.00;99.90
2565;DHT22;1292;48.020;7.822;2023-05-07T18:35:06;20.00;99.90
2565;DHT22;1292;48.020;7.822;2023-05-07T18:37:33;19.90;99.90
2565;DHT22;1292;48.020;7.822;2023-05-07T18:40:00;20.00;99.90
2565;DHT22;1292;48.020;7.822;2023-05-07T18:42:28;20.00;99.90
2565;DHT22;1292;48.020;7.822;2023-05-07T18:44:56;19.90;99.90
2565;DHT22;1292;48.020;7.822;2023-05-07T18:47:25;19.60;99.90
2565;DHT22;1292;48.020;7.822;2023-05-07T18:49:51;19.50;99.90
2565;DHT22;1292;48.020;7.822;2023-05-07T18:52:18;19.40;99.90
2565;DHT22;1292;48.020;7.822;2023-05-07T18:54:46;19.20;99.90
2565;DHT22;1292;48.020;7.822;2023-05-07T18:57:13;19.20;99.90
2565;DHT22;1292;48.020;7.822;2023-05-07T18:59:41;19.10;99.90
2565;DHT22;1292;48.020;7.822;2023-05-07T19:02:08;19.00;99.90
2565;DHT22;1292;48.020;7.822;2023-05-07T19:04:36;18.80;99.90
2565;DHT22;1292;48.020;7.822;2023-05-07T19:07:03;18.70;99.90
2565;DHT22;1292;48.020;7.822;2023-05-07T19:09:30;18.60;99.90
2565;DHT22;1292;48.020;7.822;2023-05-07T19:11:57;18.60;99.90
2565;DHT22;1292;48.020;7.822;2023-05-07T19:14:24;18.60;99.90
2565;DHT22;1292;48.020;7.822;2023-05-07T19:16:51;18.60;99.90
2565;DHT22;1292;48.020;7.822;2023-05-07T19:19:18;18.50;99.90
2565;DHT22;1292;48.020;7.822;2023-05-07T19:21:46;18.50;99.90
2565;DHT22;1292;48.020;7.822;2023-05-07T19:24:13;18.50;99.90
2565;DHT22;1292;48.020;7.822;2023-05-07T19:26:40;18.50;99.90
2565;DHT22;1292;48.020;7.822;2023-05-07T19:29:07;18.60;99.90
2565;DHT22;1292;48.020;7.822;2023-05-07T19:31:34;18.50;99.90
2565;DHT22;1292;48.020;7.822;2023-05-07T19:34:01;18.50;99.90
2565;DHT22;1292;48.020;7.822;2023-05-07T19:36:29;18.40;99.90
2565;DHT22;1292;48.020;7.822;2023-05-07T19:38:59;18.30;99.90
2565;DHT22;1292;48.020;7.822;2023-05-07T19:41:25;18.20;99.90
2565;DHT22;1292;48.020;7.822;2023-05-07T19:43:52;18.20;99.90
2565;DHT22;1292;48.020;7.822;2023-05-07T19:46:19;18.20;99.90
2565;DHT22;1292;48.020;7.822;2023-05-07T19:48:46;18.20;99.90
2565;DHT22;1292;48.020;7.822;2023-05-07T19:51:13;18.30;99.90
2565;DHT22;1292;48.020;7.822;2023-05-07T19:53:40;18.30;99.90
2565;DHT22;1292;48.020;7.822;2023-05-07T19:56:10;18.30;99.90
2565;DHT22;1292;48.020;7.822;2023-05-07T19:58:38;18.30;99.90
2565;DHT22;1292;48.020;7.822;2023-05-07T20:01:05;18.30;99.90
2565;DHT22;1292;48.020;7.822;2023-05-07T20:03:32;18.30;99.90
2565;DHT22;1292;48.020;7.822;2023-05-07T20:05:59;18.20;99.90
2565;DHT22;1292;48.020;7.822;2023-05-07T20:08:27;18.20;99.90
2565;DHT22;1292;48.020;7.822;2023-05-07T20:10:56;18.20;99.90
2565;DHT22;1292;48.020;7.822;2023-05-07T20:13:25;18.10;99.90
2565;DHT22;1292;48.020;7.822;2023-05-07T20:15:56;18.20;99.90
2565;DHT22;1292;48.020;7.822;2023-05-07T20:18:23;18.20;99.90
2565;DHT22;1292;48.020;7.822;2023-05-07T20:20:50;18.10;99.90
2565;DHT22;1292;48.020;7.822;2023-05-07T20:23:17;18.10;99.90
2565;DHT22;1292;48.020;7.822;2023-05-07T20:25:45;18.20;99.90
2565;DHT22;1292;48.020;7.822;2023-05-07T20:28:12;18.10;99.90
2565;DHT22;1292;48.020;7.822;2023-05-07T20:30:41;18.10;99.90
2565;DHT22;1292;48.020;7.822;2023-05-07T20:33:07;18.20;99.90
2565;DHT22;1292;48.020;7.822;2023-05-07T20:35:35;18.10;99.90
2565;DHT22;1292;48.020;7.822;2023-05-07T20:38:01;18.00;99.90
2565;DHT22;1292;48.020;7.822;2023-05-07T20:40:28;18.00;99.90
2565;DHT22;1292;48.020;7.822;2023-05-07T20:42:56;18.00;99.90
2565;DHT22;1292;48.020;7.822;2023-05-07T20:45:23;17.90;99.90
2565;DHT22;1292;48.020;7.822;2023-05-07T20:47:52;17.80;99.90
2565;DHT22;1292;48.020;7.822;2023-05-07T20:50:21;17.70;99.90
2565;DHT22;1292;48.020;7.822;2023-05-07T20:52:48;17.60;99.90
2565;DHT22;1292;48.020;7.822;2023-05-07T20:55:15;17.40;99.90
2565;DHT22;1292;48.020;7.822;2023-05-07T20:57:42;17.40;99.90
2565;DHT22;1292;48.020;7.822;2023-05-07T21:00:09;17.30;99.90
2565;DHT22;1292;48.020;7.822;2023-05-07T21:02:36;17.30;99.90
2565;DHT22;1292;48.020;7.822;2023-05-07T21:05:05;17.30;99.90
2565;DHT22;1292;48.020;7.822;2023-05-07T21:07:32;17.30;99.90
2565;DHT22;1292;48.020;7.822;2023-05-07T21:09:59;17.30;99.90
2565;DHT22;1292;48.020;7.822;2023-05-07T21:12:26;17.20;99.90
2565;DHT22;1292;48.020;7.822;2023-05-07T21:14:53;17.20;99.90
2565;DHT22;1292;48.020;7.822;2023-05-07T21:17:19;17.10;99.90
2565;DHT22;1292;48.020;7.822;2023-05-07T21:19:46;17.00;99.90
2565;DHT22;1292;48.020;7.822;2023-05-07T21:22:15;17.00;99.90
2565;DHT22;1292;48.020;7.822;2023-05-07T21:24:42;16.80;99.90
2565;DHT22;1292;48.020;7.822;2023-05-07T21:27:09;16.70;99.90
2565;DHT22;1292;48.020;7.822;2023-05-07T21:29:36;16.80;99.90
2565;DHT22;1292;48.020;7.822;2023-05-07T21:32:03;16.80;99.90
2565;DHT22;1292;48.020;7.822;2023-05-07T21:34:30;16.80;99.90
2565;DHT22;1292;48.020;7.822;2023-05-07T21:36:57;16.70;99.90
2565;DHT22;1292;48.020;7.822;2023-05-07T21:39:25;16.90;99.90
